Time;durP1;ratioP1;P1;durP2;ratioP2;P2;SDS_P1;SDS_P2;PMS_P1;PMS_P2;Temp;Humidity;BMP_temperature;BMP_pressure;BME280_temperature;BME280_humidity;BME280_pressure;Samples;Min_cycle;Max_cycle;Signal;HPM_P1;HPM_P2
2023/03/02 00:01:15;;;;;;;26.70;14.02;;;;;;;;;;6194803;23;20005;-79
2023/03/02 00:03:41;;;;;;;22.83;11.43;;;;;;;;;;6194928;23;20072;-79
2023/03/02 00:06:08;;;;;;;22.10;11.95;;;;;;;;;;6196166;23;20005;-79
2023/03/02 00:08:34;;;;;;;22.55;11.98;;;;;;;;;;6168175;23;20008;-79
2023/03/02 00:11:00;;;;;;;22.75;11.68;;;;;;;;;;6194962;23;20024;-79
2023/03/02 00:13:28;;;;;;;25.38;13.43;;;;;;;;;;6195314;23;20071;-79
2023/03/02 00:15:54;;;;;;;23.80;12.85;;;;;;;;;;6195107;23;20017;-79
2023/03/02 00:18:20;;;;;;;26.40;13.73;;;;;;;;;;6195088;23;20359;-79
2023/03/02 00:20:46;;;;;;;21.60;11.13;;;;;;;;;;6195169;23;20005;-79
2023/03/02 00:23:14;;;;;;;26.17;13.13;;;;;;;;;;6196062;23;20001;-79
2023/03/02 00:25:41;;;;;;;24.83;13.88;;;;;;;;;;6194686;23;20023;-79
2023/03/02 00:28:07;;;;;;;21.52;10.05;;;;;;;;;;6195770;23;20025;-79
2023/03/02 00:30:33;;;;;;;28.95;13.95;;;;;;;;;;6194560;23;20001;-79
2023/03/02 00:32:59;;;;;;;28.67;12.35;;;;;;;;;;6195168;23;20001;-79
2023/03/02 00:35:25;;;;;;;27.55;13.75;;;;;;;;;;6194713;23;20375;-79
2023/03/02 00:37:51;;;;;;;31.15;15.48;;;;;;;;;;6194735;23;20304;-79
2023/03/02 00:40:17;;;;;;;30.50;16.02;;;;;;;;;;6196739;23;20459;-79
2023/03/02 00:42:44;;;;;;;29.37;14.50;;;;;;;;;;6148390;23;1166062;-79
2023/03/02 00:45:10;;;;;;;30.10;15.07;;;;;;;;;;6199480;23;20231;-79
2023/03/02 00:47:36;;;;;;;31.30;15.65;;;;;;;;;;6199512;23;20088;-79
2023/03/02 00:50:02;;;;;;;29.30;15.57;;;;;;;;;;6200170;23;20311;-79
2023/03/02 00:52:29;;;;;;;25.13;11.57;;;;;;;;;;6172510;23;20008;-79
2023/03/02 00:54:55;;;;;;;23.70;12.05;;;;;;;;;;6198890;23;20064;-79
2023/03/02 00:57:21;;;;;;;31.63;15.85;;;;;;;;;;6197187;23;19997;-79
2023/03/02 00:59:47;;;;;;;24.63;13.02;;;;;;;;;;6197458;23;20032;-79
2023/03/02 01:02:13;;;;;;;28.52;12.73;;;;;;;;;;6197470;23;19997;-79
2023/03/02 01:04:40;;;;;;;30.27;16.00;;;;;;;;;;6197219;23;20004;-79
2023/03/02 01:07:11;;;;;;;22.70;11.95;;;;;;;;;;6196742;23;20012;-79
2023/03/02 01:09:39;;;;;;;30.38;15.30;;;;;;;;;;6197534;23;20011;-79
2023/03/02 01:12:08;;;;;;;24.55;12.80;;;;;;;;;;6197142;23;20001;-79
2023/03/02 01:14:34;;;;;;;29.00;15.00;;;;;;;;;;6196884;23;19997;-79
2023/03/02 01:17:00;;;;;;;26.85;14.30;;;;;;;;;;6196706;23;19997;-79
2023/03/02 01:19:26;;;;;;;25.38;12.98;;;;;;;;;;6197988;23;20005;-79
2023/03/02 01:21:52;;;;;;;26.35;13.82;;;;;;;;;;6196626;23;20021;-79
2023/03/02 01:24:18;;;;;;;23.40;14.18;;;;;;;;;;6197326;23;20044;-79
2023/03/02 01:26:44;;;;;;;21.73;11.00;;;;;;;;;;6197260;23;20005;-79
2023/03/02 01:29:10;;;;;;;19.08;10.02;;;;;;;;;;6196712;23;19997;-79
2023/03/02 01:31:37;;;;;;;24.95;12.30;;;;;;;;;;6194255;23;19997;-79
2023/03/02 01:34:03;;;;;;;16.17;9.00;;;;;;;;;;6194497;23;20008;-79
2023/03/02 01:36:29;;;;;;;22.73;12.65;;;;;;;;;;6194375;23;20009;-79
2023/03/02 01:38:55;;;;;;;24.42;12.77;;;;;;;;;;6194630;23;20001;-79
2023/03/02 01:41:21;;;;;;;27.15;12.23;;;;;;;;;;6194167;23;20024;-79
2023/03/02 01:43:47;;;;;;;27.45;13.65;;;;;;;;;;6194994;23;20028;-79
2023/03/02 01:46:19;;;;;;;24.75;11.85;;;;;;;;;;6168227;23;20013;-79
2023/03/02 01:48:53;;;;;;;26.95;14.13;;;;;;;;;;6167967;23;20005;-79
2023/03/02 01:51:22;;;;;;;21.73;11.57;;;;;;;;;;6194668;23;20004;-79
2023/03/02 01:53:51;;;;;;;24.52;14.10;;;;;;;;;;6194181;23;20309;-79
2023/03/02 01:56:18;;;;;;;21.25;11.98;;;;;;;;;;6194203;23;20009;-79
2023/03/02 01:58:45;;;;;;;20.85;11.50;;;;;;;;;;6193923;23;20005;-79
2023/03/02 02:01:14;;;;;;;17.73;10.60;;;;;;;;;;6194214;23;20024;-79
2023/03/02 02:03:45;;;;;;;20.73;10.18;;;;;;;;;;6194112;23;20420;-79
2023/03/02 02:06:10;;;;;;;;;;;;;;;;;;6195046;23;20001;-79
2023/03/02 02:08:37;;;;;;;21.40;11.52;;;;;;;;;;6193874;23;20345;-79
2023/03/02 02:11:04;;;;;;;19.90;9.52;;;;;;;;;;6193781;23;20052;-79
2023/03/02 02:13:30;;;;;;;19.02;9.93;;;;;;;;;;6193615;23;20021;-79
2023/03/02 02:15:56;;;;;;;14.32;7.30;;;;;;;;;;6194291;23;20067;-79
2023/03/02 02:18:22;;;;;;;16.38;8.77;;;;;;;;;;6194780;23;19998;-79
2023/03/02 02:20:49;;;;;;;14.57;7.15;;;;;;;;;;6195079;23;20008;-79
2023/03/02 02:23:33;;;;;;;17.83;9.30;;;;;;;;;;6193794;23;20049;-79
2023/03/02 02:26:04;;;;;;;13.82;7.90;;;;;;;;;;6194986;23;20005;-79
2023/03/02 02:28:50;;;;;;;15.23;8.43;;;;;;;;;;6194816;23;20052;-79
2023/03/02 02:31:27;;;;;;;16.25;8.48;;;;;;;;;;6194457;23;20001;-79
2023/03/02 02:33:56;;;;;;;12.68;6.65;;;;;;;;;;6193556;23;20001;-79
2023/03/02 02:36:24;;;;;;;13.95;7.30;;;;;;;;;;6193878;23;20009;-79
2023/03/02 02:38:52;;;;;;;16.13;8.55;;;;;;;;;;6194507;23;20025;-79
2023/03/02 02:41:21;;;;;;;16.00;8.90;;;;;;;;;;6194454;23;20092;-79
2023/03/02 02:43:48;;;;;;;16.58;9.60;;;;;;;;;;6194672;23;20461;-79
2023/03/02 02:46:14;;;;;;;16.20;9.30;;;;;;;;;;6193974;23;20076;-79
2023/03/02 02:48:40;;;;;;;14.52;8.48;;;;;;;;;;6193376;23;20008;-79
2023/03/02 02:51:07;;;;;;;17.65;9.70;;;;;;;;;;6194039;23;20447;-79
2023/03/02 02:53:37;;;;;;;16.52;8.55;;;;;;;;;;6193661;23;19993;-79
2023/03/02 02:56:04;;;;;;;23.60;12.13;;;;;;;;;;6193361;23;20005;-79
2023/03/02 02:58:37;;;;;;;29.98;13.48;;;;;;;;;;6193946;23;20008;-79
2023/03/02 03:01:04;;;;;;;30.42;15.40;;;;;;;;;;6194265;23;20056;-79
2023/03/02 03:03:32;;;;;;;27.98;14.60;;;;;;;;;;6194186;23;20087;-79
2023/03/02 03:05:59;;;;;;;31.00;13.85;;;;;;;;;;6193213;23;19998;-79
2023/03/02 03:08:43;;;;;;;24.55;12.93;;;;;;;;;;6193619;23;20025;-79
2023/03/02 03:11:13;;;;;;;20.80;10.82;;;;;;;;;;6193326;23;20066;-79
2023/03/02 03:13:49;;;;;;;22.05;11.80;;;;;;;;;;6193418;23;19997;-79
2023/03/02 03:16:17;;;;;;;20.67;11.05;;;;;;;;;;6193385;23;20054;-79
2023/03/02 03:18:44;;;;;;;21.38;10.93;;;;;;;;;;6193403;23;20001;-79
2023/03/02 03:21:10;;;;;;;20.83;10.57;;;;;;;;;;6193047;23;20117;-79
2023/03/02 03:23:37;;;;;;;23.58;11.70;;;;;;;;;;6193428;23;20371;-79
2023/03/02 03:26:06;;;;;;;19.98;10.30;;;;;;;;;;6195299;23;20005;-79
2023/03/02 03:28:34;;;;;;;18.17;9.27;;;;;;;;;;6194775;23;20004;-79
2023/03/02 03:30:59;;;;;;;17.75;9.73;;;;;;;;;;6194053;23;20008;-79
2023/03/02 03:33:25;;;;;;;18.17;9.90;;;;;;;;;;6192856;23;19997;-79
2023/03/02 03:35:51;;;;;;;21.23;10.20;;;;;;;;;;6193134;23;20482;-79
2023/03/02 03:38:18;;;;;;;19.65;10.05;;;;;;;;;;6193067;23;19998;-79
2023/03/02 03:40:44;;;;;;;17.35;10.23;;;;;;;;;;6193594;23;20051;-79
2023/03/02 03:43:12;;;;;;;20.60;10.27;;;;;;;;;;6189206;23;20017;-79
2023/03/02 03:45:38;;;;;;;24.75;11.20;;;;;;;;;;6193635;23;20008;-79
2023/03/02 03:48:04;;;;;;;21.10;10.30;;;;;;;;;;6194184;23;19993;-79
2023/03/02 03:50:30;;;;;;;22.33;10.38;;;;;;;;;;6193791;23;20052;-79
2023/03/02 03:52:57;;;;;;;25.27;12.05;;;;;;;;;;6194819;23;20013;-79
2023/03/02 03:55:27;;;;;;;22.50;11.00;;;;;;;;;;6194346;23;20053;-79
2023/03/02 03:58:00;;;;;;;15.25;8.07;;;;;;;;;;6193975;23;20013;-79
2023/03/02 04:00:26;;;;;;;30.40;13.18;;;;;;;;;;6194103;23;20008;-79
2023/03/02 04:02:52;;;;;;;22.98;10.23;;;;;;;;;;6192721;23;20088;-79
2023/03/02 04:05:18;;;;;;;29.77;13.73;;;;;;;;;;6193796;23;20001;-79
2023/03/02 04:07:44;;;;;;;23.35;10.98;;;;;;;;;;6194644;23;20052;-79
2023/03/02 04:10:11;;;;;;;26.10;12.38;;;;;;;;;;6194446;23;20420;-79
2023/03/02 04:12:38;;;;;;;26.63;10.73;;;;;;;;;;6193583;23;20367;-79
2023/03/02 04:15:04;;;;;;;27.67;11.32;;;;;;;;;;6193227;23;20005;-79
2023/03/02 04:17:30;;;;;;;27.55;12.15;;;;;;;;;;6193198;23;20027;-79
2023/03/02 04:19:57;;;;;;;21.27;10.55;;;;;;;;;;6193597;23;20001;-79
2023/03/02 04:22:23;;;;;;;22.67;10.27;;;;;;;;;;6193467;23;20097;-79
2023/03/02 04:24:49;;;;;;;29.75;12.82;;;;;;;;;;6193386;23;20002;-79
2023/03/02 04:27:15;;;;;;;26.08;11.55;;;;;;;;;;6193296;23;19993;-79
2023/03/02 04:29:42;;;;;;;30.58;12.57;;;;;;;;;;6193175;23;20004;-79
2023/03/02 04:32:08;;;;;;;26.45;13.45;;;;;;;;;;6193865;23;20315;-79
2023/03/02 04:34:35;;;;;;;25.85;11.93;;;;;;;;;;6191520;23;20056;-79
2023/03/02 04:37:01;;;;;;;27.83;13.02;;;;;;;;;;6192834;23;19999;-79
2023/03/02 04:39:27;;;;;;;30.42;15.98;;;;;;;;;;6193485;23;20001;-79
2023/03/02 04:41:53;;;;;;;23.20;10.48;;;;;;;;;;6192025;23;20013;-79
2023/03/02 04:44:20;;;;;;;24.13;12.00;;;;;;;;;;6193816;23;20040;-79
2023/03/02 04:46:46;;;;;;;20.73;10.25;;;;;;;;;;6193597;23;20001;-79
2023/03/02 04:49:13;;;;;;;21.98;10.93;;;;;;;;;;6195827;23;19998;-79
2023/03/02 04:51:40;;;;;;;27.65;13.50;;;;;;;;;;6197233;23;20008;-79
2023/03/02 04:54:08;;;;;;;21.88;11.23;;;;;;;;;;6196825;23;20052;-79
2023/03/02 04:56:34;;;;;;;18.23;9.63;;;;;;;;;;6196498;23;20005;-79
2023/03/02 04:59:00;;;;;;;22.80;11.05;;;;;;;;;;6196215;23;20008;-79
2023/03/02 05:01:26;;;;;;;28.83;14.10;;;;;;;;;;6194987;23;20008;-79
2023/03/02 05:03:52;;;;;;;25.50;11.77;;;;;;;;;;6195924;23;20001;-79
2023/03/02 05:06:20;;;;;;;24.80;12.48;;;;;;;;;;6195070;23;20052;-79
2023/03/02 05:08:46;;;;;;;27.65;12.07;;;;;;;;;;6195449;23;20048;-79
2023/03/02 05:11:31;;;;;;;26.23;13.07;;;;;;;;;;6194450;23;20555;-79
2023/03/02 05:13:59;;;;;;;33.72;15.48;;;;;;;;;;6194747;23;20005;-79
2023/03/02 05:16:27;;;;;;;28.95;11.82;;;;;;;;;;6194232;23;20005;-79
2023/03/02 05:18:53;;;;;;;29.38;14.38;;;;;;;;;;6195445;23;20020;-79
2023/03/02 05:21:19;;;;;;;24.00;11.13;;;;;;;;;;6194353;23;20005;-79
2023/03/02 05:23:46;;;;;;;21.60;10.93;;;;;;;;;;6193943;23;20024;-79
2023/03/02 05:26:14;;;;;;;23.38;12.75;;;;;;;;;;6194188;23;20001;-79
2023/03/02 05:28:41;;;;;;;30.75;15.82;;;;;;;;;;6193711;23;20028;-79
2023/03/02 05:31:07;;;;;;;28.50;13.52;;;;;;;;;;6194905;23;20001;-79
2023/03/02 05:33:33;;;;;;;29.92;15.02;;;;;;;;;;6194388;23;20000;-79
2023/03/02 05:35:59;;;;;;;32.28;14.32;;;;;;;;;;6194850;23;20012;-79
2023/03/02 05:38:26;;;;;;;32.22;15.48;;;;;;;;;;6195635;23;19997;-79
2023/03/02 05:40:52;;;;;;;34.08;15.15;;;;;;;;;;6195164;23;20008;-79
2023/03/02 05:43:19;;;;;;;19.70;11.13;;;;;;;;;;6194189;23;20344;-79
2023/03/02 05:45:45;;;;;;;30.60;13.48;;;;;;;;;;6193332;23;20032;-79
2023/03/02 05:48:12;;;;;;;37.42;16.60;;;;;;;;;;6193721;23;20071;-79
2023/03/02 05:50:38;;;;;;;29.17;12.50;;;;;;;;;;6194033;23;20025;-79
2023/03/02 05:53:05;;;;;;;38.35;18.02;;;;;;;;;;6193599;23;20320;-79
2023/03/02 05:55:35;;;;;;;35.83;15.70;;;;;;;;;;6194079;23;20001;-79
2023/03/02 05:58:01;;;;;;;;;;;;;;;;;;6194410;23;20024;-79
2023/03/02 06:00:27;;;;;;;36.83;15.52;;;;;;;;;;6194643;23;19906;-79
2023/03/02 06:02:53;;;;;;;35.20;15.57;;;;;;;;;;6194352;23;20001;-79
2023/03/02 06:05:21;;;;;;;30.10;13.05;;;;;;;;;;6194802;23;20001;-79
2023/03/02 06:07:54;;;;;;;35.15;16.75;;;;;;;;;;6196258;23;20005;-79
2023/03/02 06:10:21;;;;;;;32.55;15.27;;;;;;;;;;6195862;23;20001;-79
2023/03/02 06:12:47;;;;;;;44.65;18.40;;;;;;;;;;6196174;23;20082;-79
2023/03/02 06:15:12;;;;;;;27.20;11.43;;;;;;;;;;6195491;23;20008;-79
2023/03/02 06:17:38;;;;;;;41.88;18.50;;;;;;;;;;6196069;23;20008;-79
2023/03/02 06:20:09;;;;;;;30.90;11.85;;;;;;;;;;6194709;23;20107;-79
2023/03/02 06:22:37;;;;;;;35.20;15.93;;;;;;;;;;6166917;23;20051;-79
2023/03/02 06:25:03;;;;;;;28.20;14.10;;;;;;;;;;6196208;23;20001;-79
2023/03/02 06:27:29;;;;;;;31.52;14.07;;;;;;;;;;6195483;23;20001;-79
2023/03/02 06:29:55;;;;;;;35.15;15.65;;;;;;;;;;6196099;23;20322;-79
2023/03/02 06:32:21;;;;;;;39.58;18.05;;;;;;;;;;6194963;23;20412;-79
2023/03/02 06:34:47;;;;;;;37.78;17.30;;;;;;;;;;6195209;23;20016;-79
2023/03/02 06:37:13;;;;;;;34.70;15.63;;;;;;;;;;6195296;23;20004;-80
2023/03/02 06:39:39;;;;;;;45.00;18.98;;;;;;;;;;6195435;23;20080;-79
2023/03/02 06:42:05;;;;;;;45.97;19.92;;;;;;;;;;6196178;23;20033;-79
2023/03/02 06:44:31;;;;;;;28.92;13.43;;;;;;;;;;6194847;23;20021;-79
2023/03/02 06:46:57;;;;;;;35.75;16.33;;;;;;;;;;6195136;23;19996;-79
2023/03/02 06:49:24;;;;;;;38.20;16.55;;;;;;;;;;6195327;23;20033;-79
2023/03/02 06:51:52;;;;;;;53.03;21.10;;;;;;;;;;6168151;23;20001;-79
2023/03/02 06:54:18;;;;;;;47.47;18.88;;;;;;;;;;6195852;23;20048;-79
2023/03/02 06:56:44;;;;;;;45.97;19.25;;;;;;;;;;6194349;23;20336;-80
2023/03/02 06:59:10;;;;;;;31.15;13.13;;;;;;;;;;6194371;23;20002;-79
2023/03/02 07:01:36;;;;;;;40.47;16.77;;;;;;;;;;6194183;23;20004;-79
2023/03/02 07:04:02;;;;;;;50.05;17.27;;;;;;;;;;6195011;23;20367;-79
2023/03/02 07:06:28;;;;;;;55.28;21.48;;;;;;;;;;6194298;23;20008;-79
2023/03/02 07:08:54;;;;;;;58.47;20.52;;;;;;;;;;6194193;23;20001;-79
2023/03/02 07:11:20;;;;;;;46.67;16.15;;;;;;;;;;6167727;23;20152;-79
2023/03/02 07:13:46;;;;;;;43.25;17.30;;;;;;;;;;6197773;23;20007;-80
2023/03/02 07:16:13;;;;;;;57.63;19.95;;;;;;;;;;6170703;23;20013;-80
2023/03/02 07:18:39;;;;;;;45.10;17.15;;;;;;;;;;6197381;23;20308;-79
2023/03/02 07:21:06;;;;;;;49.53;15.25;;;;;;;;;;6197589;23;20001;-80
2023/03/02 07:23:32;;;;;;;42.10;16.33;;;;;;;;;;6197293;23;20003;-79
2023/03/02 07:25:58;;;;;;;46.92;17.65;;;;;;;;;;6196396;23;20004;-79
2023/03/02 07:28:25;;;;;;;43.53;15.15;;;;;;;;;;6195407;23;20001;-79
2023/03/02 07:30:54;;;;;;;51.53;20.77;;;;;;;;;;6194710;23;19997;-79
2023/03/02 07:33:21;;;;;;;49.08;17.40;;;;;;;;;;6194704;23;19993;-79
2023/03/02 07:35:49;;;;;;;52.90;19.77;;;;;;;;;;6195334;23;20009;-79
2023/03/02 07:38:15;;;;;;;43.45;16.48;;;;;;;;;;6195156;23;20052;-80
2023/03/02 07:40:42;;;;;;;34.13;13.98;;;;;;;;;;6196776;23;20008;-80
2023/03/02 07:43:08;;;;;;;51.40;20.58;;;;;;;;;;6196822;23;20021;-80
2023/03/02 07:45:34;;;;;;;43.42;15.07;;;;;;;;;;6196447;23;20055;-80
2023/03/02 07:48:00;;;;;;;39.53;15.48;;;;;;;;;;6196561;23;20387;-79
2023/03/02 07:50:26;;;;;;;41.47;16.55;;;;;;;;;;6196695;23;20001;-80
2023/03/02 07:52:52;;;;;;;34.80;13.88;;;;;;;;;;6196385;23;20008;-80
2023/03/02 07:55:18;;;;;;;49.30;16.42;;;;;;;;;;6196004;23;20009;-80
2023/03/02 07:57:44;;;;;;;36.30;14.93;;;;;;;;;;6197155;23;20005;-80
2023/03/02 08:00:11;;;;;;;46.25;17.48;;;;;;;;;;6196490;23;20001;-80
2023/03/02 08:02:37;;;;;;;47.78;19.45;;;;;;;;;;6195348;23;20148;-80
2023/03/02 08:05:03;;;;;;;43.35;15.75;;;;;;;;;;6195800;23;20324;-79
2023/03/02 08:07:29;;;;;;;47.92;16.40;;;;;;;;;;6196260;23;20044;-80
2023/03/02 08:09:55;;;;;;;41.58;16.23;;;;;;;;;;6196927;23;20097;-80
2023/03/02 08:12:21;;;;;;;44.25;15.88;;;;;;;;;;6195380;23;20017;-80
2023/03/02 08:14:47;;;;;;;40.25;16.13;;;;;;;;;;6197131;23;19997;-80
2023/03/02 08:17:14;;;;;;;42.28;17.65;;;;;;;;;;6195465;23;19997;-80
2023/03/02 08:19:40;;;;;;;34.33;14.27;;;;;;;;;;6195647;23;19993;-80
2023/03/02 08:22:06;;;;;;;38.45;14.00;;;;;;;;;;6195177;23;20028;-80
2023/03/02 08:24:32;;;;;;;30.88;13.55;;;;;;;;;;6196758;23;20072;-79
2023/03/02 08:27:02;;;;;;;33.55;13.32;;;;;;;;;;6197660;23;20005;-79
2023/03/02 08:29:30;;;;;;;25.55;11.90;;;;;;;;;;6196125;23;20012;-80
2023/03/02 08:31:57;;;;;;;44.15;17.58;;;;;;;;;;6195536;23;20001;-80
2023/03/02 08:34:25;;;;;;;41.60;15.57;;;;;;;;;;6196254;23;20005;-80
2023/03/02 08:36:51;;;;;;;43.03;17.48;;;;;;;;;;6193507;23;20040;-80
2023/03/02 08:39:17;;;;;;;50.03;18.23;;;;;;;;;;6196622;23;20005;-80
2023/03/02 08:41:43;;;;;;;42.92;15.35;;;;;;;;;;6197717;23;20013;-80
2023/03/02 08:44:09;;;;;;;57.75;19.60;;;;;;;;;;6193464;23;20001;-80
2023/03/02 08:46:35;;;;;;;50.65;18.13;;;;;;;;;;6191588;23;20319;-80
2023/03/02 08:49:01;;;;;;;43.00;16.73;;;;;;;;;;6193045;23;20001;-80
2023/03/02 08:51:27;;;;;;;37.13;13.55;;;;;;;;;;6165395;23;20011;-78
2023/03/02 08:53:54;;;;;;;43.60;15.60;;;;;;;;;;6188802;23;20467;-78
2023/03/02 08:56:20;;;;;;;42.58;17.95;;;;;;;;;;6187579;23;20048;-78
2023/03/02 08:58:46;;;;;;;48.20;17.60;;;;;;;;;;6187822;23;20050;-78
2023/03/02 09:01:30;;;;;;;49.00;19.38;;;;;;;;;;6187555;23;20005;-78
2023/03/02 09:03:58;;;;;;;38.22;16.63;;;;;;;;;;6187794;23;20051;-78
2023/03/02 09:06:24;;;;;;;43.58;17.58;;;;;;;;;;6188239;23;20012;-78
2023/03/02 09:08:50;;;;;;;50.25;18.92;;;;;;;;;;6187554;23;20332;-77
2023/03/02 09:11:17;;;;;;;47.80;16.80;;;;;;;;;;6187454;23;20004;-78
2023/03/02 09:13:43;;;;;;;45.60;18.38;;;;;;;;;;6187710;23;20004;-78
2023/03/02 09:16:09;;;;;;;37.05;16.48;;;;;;;;;;6187163;23;20084;-78
2023/03/02 09:18:35;;;;;;;47.45;17.88;;;;;;;;;;6187338;23;20495;-78
2023/03/02 09:21:01;;;;;;;41.90;15.10;;;;;;;;;;6187107;23;20055;-78
2023/03/02 09:23:28;;;;;;;39.75;16.15;;;;;;;;;;6187110;23;20001;-78
2023/03/02 09:25:54;;;;;;;45.75;18.38;;;;;;;;;;6187076;23;20005;-78
2023/03/02 09:28:21;;;;;;;45.30;18.35;;;;;;;;;;6186906;23;20032;-78
2023/03/02 09:30:54;;;;;;;34.28;13.48;;;;;;;;;;6186944;23;20001;-78
2023/03/02 09:33:20;;;;;;;41.63;15.40;;;;;;;;;;6186781;23;20365;-78
2023/03/02 09:35:46;;;;;;;40.03;14.48;;;;;;;;;;6186580;23;20080;-78
2023/03/02 09:38:17;;;;;;;37.30;15.35;;;;;;;;;;6186851;23;20027;-78
2023/03/02 09:40:59;;;;;;;40.83;15.38;;;;;;;;;;6187010;23;19993;-78
2023/03/02 09:43:43;;;;;;;37.65;17.40;;;;;;;;;;6187543;23;20013;-78
2023/03/02 09:46:28;;;;;;;36.72;15.80;;;;;;;;;;6187505;23;20445;-78
2023/03/02 09:49:02;;;;;;;39.58;15.85;;;;;;;;;;6187573;23;19994;-78
2023/03/02 09:51:43;;;;;;;45.08;16.92;;;;;;;;;;6187254;23;20005;-77
2023/03/02 09:54:13;;;;;;;40.28;15.65;;;;;;;;;;6187450;23;20001;-78
2023/03/02 09:56:43;;;;;;;40.28;16.00;;;;;;;;;;6160719;23;20458;-78
2023/03/02 09:59:20;;;;;;;39.70;16.37;;;;;;;;;;6186913;23;20024;-79
2023/03/02 10:02:09;;;;;;;40.67;15.45;;;;;;;;;;6187446;23;20272;-78
2023/03/02 10:04:47;;;;;;;33.28;13.80;;;;;;;;;;6171232;23;20009;-79
2023/03/02 10:07:15;;;;;;;21.70;8.90;;;;;;;;;;6187436;23;20033;-79
2023/03/02 10:09:42;;;;;;;30.15;13.77;;;;;;;;;;6160611;23;20316;-79
2023/03/02 10:12:22;;;;;;;36.42;14.40;;;;;;;;;;6187361;23;20007;-80
2023/03/02 10:14:52;;;;;;;33.70;14.20;;;;;;;;;;6187319;23;20009;-80
2023/03/02 10:17:37;;;;;;;35.58;14.98;;;;;;;;;;6187184;23;20001;-80
2023/03/02 10:20:04;;;;;;;34.17;13.10;;;;;;;;;;6187063;23;20017;-79
2023/03/02 10:22:44;;;;;;;32.30;14.05;;;;;;;;;;6186853;23;20009;-79
2023/03/02 10:25:22;;;;;;;37.53;17.02;;;;;;;;;;6186963;23;20039;-79
2023/03/02 10:28:00;;;;;;;32.13;15.07;;;;;;;;;;6186372;23;20079;-77
2023/03/02 10:30:36;;;;;;;31.58;14.23;;;;;;;;;;6186894;23;20055;-79
2023/03/02 10:33:04;;;;;;;34.25;13.98;;;;;;;;;;6159633;23;20005;-77
2023/03/02 10:35:30;;;;;;;30.33;12.60;;;;;;;;;;6186423;23;20005;-78
2023/03/02 10:37:59;;;;;;;28.63;12.25;;;;;;;;;;6186643;23;20076;-78
2023/03/02 10:40:25;;;;;;;28.95;13.98;;;;;;;;;;6186986;23;20285;-78
2023/03/02 10:42:51;;;;;;;29.15;13.27;;;;;;;;;;6186431;23;20017;-78
2023/03/02 10:45:20;;;;;;;33.50;15.35;;;;;;;;;;6186530;23;20024;-78
2023/03/02 10:47:46;;;;;;;33.95;15.07;;;;;;;;;;6187737;23;20058;-79
2023/03/02 10:50:22;;;;;;;33.97;14.63;;;;;;;;;;6193961;23;19997;-79
2023/03/02 10:52:49;;;;;;;31.25;13.15;;;;;;;;;;6192812;23;20063;-79
2023/03/02 10:55:15;;;;;;;30.55;14.52;;;;;;;;;;6187963;23;20013;-79
2023/03/02 10:57:45;;;;;;;32.30;14.40;;;;;;;;;;6188604;23;19993;-79
2023/03/02 11:00:16;;;;;;;29.70;12.88;;;;;;;;;;6192653;23;20001;-81
2023/03/02 11:03:08;;;;;;;28.92;13.98;;;;;;;;;;6203648;23;19997;-80
2023/03/02 11:05:34;;;;;;;29.08;12.20;;;;;;;;;;6149367;23;20088;-81
2023/03/02 11:08:11;;;;;;;27.95;12.02;;;;;;;;;;6195230;23;19997;-81
2023/03/02 11:11:04;;;;;;;31.27;14.35;;;;;;;;;;6191555;23;20013;-79
2023/03/02 11:13:31;;;;;;;23.25;9.68;;;;;;;;;;6191938;23;19994;-79
2023/03/02 11:16:00;;;;;;;34.03;13.57;;;;;;;;;;6192924;23;20005;-78
2023/03/02 11:18:29;;;;;;;26.10;12.07;;;;;;;;;;6191607;23;20443;-78
2023/03/02 11:21:01;;;;;;;35.20;13.73;;;;;;;;;;6192544;23;19997;-79
2023/03/02 11:23:34;;;;;;;28.95;12.75;;;;;;;;;;6190902;23;20436;-78
2023/03/02 11:26:04;;;;;;;29.27;12.77;;;;;;;;;;6190243;23;20079;-78
2023/03/02 11:28:53;;;;;;;30.90;12.95;;;;;;;;;;6189295;23;20389;-78
2023/03/02 11:31:23;;;;;;;27.17;11.35;;;;;;;;;;6187090;23;20305;-78
2023/03/02 11:34:05;;;;;;;29.23;12.05;;;;;;;;;;6187556;23;20036;-78
2023/03/02 11:36:55;;;;;;;20.88;10.25;;;;;;;;;;6189734;23;20017;-78
2023/03/02 11:39:24;;;;;;;28.13;11.80;;;;;;;;;;6186642;23;19999;-78
2023/03/02 11:41:52;;;;;;;19.33;8.40;;;;;;;;;;6186112;23;20013;-78
2023/03/02 11:44:19;;;;;;;23.65;11.70;;;;;;;;;;6191028;23;20009;-79
2023/03/02 11:46:47;;;;;;;26.02;12.18;;;;;;;;;;6187559;23;20025;-79
2023/03/02 11:49:18;;;;;;;25.55;10.65;;;;;;;;;;6187792;23;20035;-79
2023/03/02 11:51:50;;;;;;;27.73;12.50;;;;;;;;;;6192441;23;20435;-79
2023/03/02 11:54:32;;;;;;;24.02;11.35;;;;;;;;;;6192721;23;20322;-79
2023/03/02 11:57:29;;;;;;;23.48;9.85;;;;;;;;;;6193646;23;20009;-79
2023/03/02 11:59:57;;;;;;;24.45;11.40;;;;;;;;;;6194121;23;19997;-79
2023/03/02 12:02:23;;;;;;;23.95;9.65;;;;;;;;;;6195975;23;19997;-79
2023/03/02 12:04:49;;;;;;;19.90;7.70;;;;;;;;;;6194268;23;20005;-78
2023/03/02 12:07:26;;;;;;;23.27;11.43;;;;;;;;;;6192555;23;20002;-79
2023/03/02 12:10:06;;;;;;;15.07;6.75;;;;;;;;;;6191987;23;20048;-78
2023/03/02 12:12:32;;;;;;;;;;;;;;;;;;6192523;23;20031;-79
2023/03/02 12:14:58;;;;;;;18.92;7.72;;;;;;;;;;6191639;23;19904;-79
2023/03/02 12:17:24;;;;;;;18.35;7.63;;;;;;;;;;6190103;23;19994;-79
2023/03/02 12:19:51;;;;;;;21.25;8.80;;;;;;;;;;6189030;23;20063;-79
2023/03/02 12:22:30;;;;;;;20.23;6.43;;;;;;;;;;6192353;23;20301;-78
2023/03/02 12:25:02;;;;;;;15.15;5.90;;;;;;;;;;6188422;23;20072;-78
2023/03/02 12:27:34;;;;;;;18.25;7.32;;;;;;;;;;6188609;23;20367;-79
2023/03/02 12:30:13;;;;;;;22.80;8.73;;;;;;;;;;6193535;23;20028;-79
2023/03/02 12:32:44;;;;;;;21.63;7.53;;;;;;;;;;6193468;23;20060;-79
2023/03/02 12:35:14;;;;;;;25.73;8.32;;;;;;;;;;6188049;23;20482;-78
2023/03/02 12:37:41;;;;;;;22.63;10.70;;;;;;;;;;6191192;23;19997;-79
2023/03/02 12:40:26;;;;;;;20.73;9.00;;;;;;;;;;6188950;23;20115;-78
2023/03/02 12:42:54;;;;;;;23.60;10.32;;;;;;;;;;6188176;23;20020;-79
2023/03/02 12:45:39;;;;;;;20.85;9.32;;;;;;;;;;6188274;23;19997;-78
2023/03/02 12:48:15;;;;;;;26.38;10.15;;;;;;;;;;6191053;23;20080;-79
2023/03/02 12:50:41;;;;;;;20.38;7.80;;;;;;;;;;6190225;23;20025;-78
2023/03/02 12:53:15;;;;;;;24.88;9.48;;;;;;;;;;6188498;23;20494;-79
2023/03/02 12:55:41;;;;;;;19.77;7.20;;;;;;;;;;6193339;23;20098;-79
2023/03/02 12:58:15;;;;;;;21.67;8.32;;;;;;;;;;6192549;23;20021;-79
2023/03/02 13:00:49;;;;;;;16.63;7.22;;;;;;;;;;6189864;23;20001;-79
2023/03/02 13:03:15;;;;;;;22.73;7.95;;;;;;;;;;6190092;23;20005;-79
2023/03/02 13:05:41;;;;;;;19.95;8.32;;;;;;;;;;6188370;23;20005;-78
2023/03/02 13:08:12;;;;;;;15.85;7.05;;;;;;;;;;6189888;23;20001;-79
2023/03/02 13:10:59;;;;;;;16.23;8.35;;;;;;;;;;6188470;23;20001;-79
2023/03/02 13:13:26;;;;;;;16.40;7.30;;;;;;;;;;6192422;23;20005;-78
2023/03/02 13:15:52;;;;;;;12.35;5.65;;;;;;;;;;6188914;23;20412;-78
2023/03/02 13:18:20;;;;;;;15.13;6.45;;;;;;;;;;6189089;23;20128;-78
2023/03/02 13:21:21;;;;;;;20.95;9.25;;;;;;;;;;6188767;23;20029;-78
2023/03/02 13:23:48;;;;;;;13.50;6.57;;;;;;;;;;6191063;23;20051;-78
2023/03/02 13:26:26;;;;;;;15.40;7.85;;;;;;;;;;6188728;23;20005;-78
2023/03/02 13:29:30;;;;;;;11.52;5.82;;;;;;;;;;6189280;23;20008;-78
2023/03/02 13:31:56;;;;;;;18.33;7.53;;;;;;;;;;6069466;23;20003;-78
2023/03/02 13:34:24;;;;;;;14.65;6.95;;;;;;;;;;6168441;23;20427;-81
2023/03/02 13:36:50;;;;;;;11.32;5.47;;;;;;;;;;6189213;23;20428;-78
2023/03/02 13:39:20;;;;;;;11.65;6.32;;;;;;;;;;6189941;23;19993;-79
2023/03/02 13:42:00;;;;;;;9.27;4.30;;;;;;;;;;6189905;23;20316;-79
2023/03/02 13:44:29;;;;;;;8.45;5.10;;;;;;;;;;6192206;23;20005;-79
2023/03/02 13:46:55;;;;;;;10.90;5.80;;;;;;;;;;6190650;23;20097;-79
2023/03/02 13:49:31;;;;;;;13.82;5.80;;;;;;;;;;6190557;23;19993;-79
2023/03/02 13:52:20;;;;;;;13.15;5.18;;;;;;;;;;6190977;23;20009;-78
2023/03/02 13:54:46;;;;;;;13.40;5.63;;;;;;;;;;6175226;23;20008;-79
2023/03/02 13:57:18;;;;;;;9.25;4.53;;;;;;;;;;6190668;23;20009;-79
2023/03/02 13:59:44;;;;;;;9.98;5.20;;;;;;;;;;6192316;23;20004;-79
2023/03/02 14:05:32;;;;;;;6.40;3.85;;;;;;;;;;6191439;23;20008;-79
2023/03/02 14:08:01;;;;;;;5.35;3.50;;;;;;;;;;6192305;23;20068;-79
2023/03/02 14:10:28;;;;;;;9.27;5.90;;;;;;;;;;6192042;23;20012;-79
2023/03/02 14:13:05;;;;;;;8.45;4.55;;;;;;;;;;6201846;23;19997;-79
2023/03/02 14:15:32;;;;;;;6.53;3.78;;;;;;;;;;6193038;23;20032;-79
2023/03/02 14:17:58;;;;;;;9.25;4.63;;;;;;;;;;6193182;23;20049;-79
2023/03/02 14:20:24;;;;;;;9.20;5.60;;;;;;;;;;6192937;23;20001;-79
2023/03/02 14:22:49;;;;;;;9.63;4.75;;;;;;;;;;6192244;23;20031;-79
2023/03/02 14:25:16;;;;;;;7.85;4.80;;;;;;;;;;6191515;23;20009;-79
2023/03/02 14:27:42;;;;;;;8.10;4.32;;;;;;;;;;6191210;23;19997;-79
2023/03/02 14:30:13;;;;;;;8.57;5.13;;;;;;;;;;6191787;23;20332;-79
2023/03/02 14:32:39;;;;;;;8.40;4.82;;;;;;;;;;6191774;23;20000;-80
2023/03/02 14:35:08;;;;;;;9.35;4.97;;;;;;;;;;6165355;23;20056;-79